Time;durP1;ratioP1;P1;durP2;ratioP2;P2;SDS_P1;SDS_P2;PMS_P1;PMS_P2;Temp;Humidity;BMP_temperature;BMP_pressure;BME280_temperature;BME280_humidity;BME280_pressure;Samples;Min_cycle;Max_cycle;Signal;HPM_P1;HPM_P2
2022/05/08 00:01:07;;;;;;;10.98;5.28;;;;;;;13.01;72.91;102555.56;5073952;28;20028;-73
2022/05/08 00:03:32;;;;;;;11.45;4.68;;;;;;;12.99;73.12;102553.88;5074346;28;20533;-73
2022/05/08 00:05:59;;;;;;;6.78;4.60;;;;;;;12.96;73.87;102552.13;5074552;28;20032;-73
2022/05/08 00:08:24;;;;;;;6.28;4.50;;;;;;;12.93;74.29;102549.53;5073968;28;20071;-73
2022/05/08 00:10:49;;;;;;;9.05;5.03;;;;;;;12.88;73.80;102540.81;5074397;28;20429;-73
2022/05/08 00:13:15;;;;;;;8.55;4.72;;;;;;;12.93;74.14;102546.91;5074519;28;20477;-73
2022/05/08 00:15:40;;;;;;;8.43;4.85;;;;;;;12.86;74.35;102550.44;5073221;28;20082;-73
2022/05/08 00:18:06;;;;;;;8.55;4.95;;;;;;;12.84;74.88;102547.81;5074331;28;20031;-73
2022/05/08 00:20:32;;;;;;;7.47;4.90;;;;;;;12.84;75.04;102542.59;5073868;28;20020;-73
2022/05/08 00:22:58;;;;;;;8.93;5.40;;;;;;;12.81;74.40;102542.59;5073635;28;20017;-73
2022/05/08 00:25:25;;;;;;;8.85;5.40;;;;;;;12.76;75.39;102547.00;5074166;28;20529;-73
2022/05/08 00:27:50;;;;;;;7.88;5.18;;;;;;;12.77;75.14;102545.25;5073951;28;20312;-73
2022/05/08 00:30:15;;;;;;;9.50;5.75;;;;;;;12.74;75.31;102546.13;5073269;28;20115;-73
2022/05/08 00:32:40;;;;;;;10.15;6.68;;;;;;;12.70;75.95;102543.56;5073794;28;20507;-73
2022/05/08 00:35:09;;;;;;;9.40;6.18;;;;;;;12.64;76.04;102542.69;5073559;28;20063;-73
2022/05/08 00:37:35;;;;;;;9.75;6.05;;;;;;;12.64;76.16;102540.06;5073783;28;20024;-73
2022/05/08 00:40:00;;;;;;;8.68;5.63;;;;;;;12.67;76.18;102543.56;5073983;28;20117;-73
2022/05/08 00:42:27;;;;;;;12.95;6.45;;;;;;;12.64;76.31;102540.06;5073060;28;20029;-73
2022/05/08 00:44:52;;;;;;;10.70;6.07;;;;;;;12.61;76.71;102544.47;5073633;28;20431;-73
2022/05/08 00:47:17;;;;;;;11.82;6.50;;;;;;;12.63;76.64;102543.59;5073712;28;20163;-73
2022/05/08 00:49:43;;;;;;;11.70;6.15;;;;;;;12.59;77.02;102531.41;5072589;28;20025;-73
2022/05/08 00:52:08;;;;;;;14.80;6.50;;;;;;;12.68;76.86;102551.41;5073832;28;20025;-73
2022/05/08 00:54:34;;;;;;;12.88;6.78;;;;;;;12.67;76.66;102552.28;5073531;28;20020;-73
2022/05/08 00:57:03;;;;;;;11.38;6.55;;;;;;;12.66;77.02;102558.41;5072796;28;20393;-73
2022/05/08 00:59:28;;;;;;;13.38;7.35;;;;;;;12.63;76.33;102561.03;5073630;28;20023;-73
2022/05/08 01:01:53;;;;;;;10.65;7.22;;;;;;;12.58;76.63;102552.31;5073310;28;20103;-73
2022/05/08 01:04:19;;;;;;;11.98;7.63;;;;;;;12.58;77.07;102568.03;5072538;28;20028;-73
2022/05/08 01:06:45;;;;;;;12.65;7.50;;;;;;;12.57;76.24;102561.06;5073217;28;20372;-73
2022/05/08 01:09:10;;;;;;;10.82;7.07;;;;;;;12.52;76.81;102566.28;5073495;28;20086;-73
2022/05/08 01:11:36;;;;;;;12.68;7.32;;;;;;;12.43;76.99;102558.50;5071470;28;20040;-73
2022/05/08 01:14:01;;;;;;;9.75;7.35;;;;;;;12.45;77.33;102555.88;5073396;28;20028;-73
2022/05/08 01:16:26;;;;;;;12.05;7.68;;;;;;;12.48;77.27;102566.31;5073374;28;20104;-73
2022/05/08 01:18:52;;;;;;;15.70;8.15;;;;;;;12.49;76.80;102570.66;5072155;28;20457;-73
2022/05/08 01:21:37;;;;;;;12.38;8.45;;;;;;;12.46;77.19;102566.34;5073062;28;20052;-73
2022/05/08 01:24:03;;;;;;;11.50;7.95;;;;;;;12.43;76.57;102568.09;5073351;28;20024;-73
2022/05/08 01:26:28;;;;;;;13.68;8.23;;;;;;;12.38;76.83;102557.63;5072365;28;20036;-73
2022/05/08 01:28:54;;;;;;;12.48;8.18;;;;;;;12.34;77.32;102571.59;5072771;28;20051;-73
2022/05/08 01:31:19;;;;;;;15.07;7.97;;;;;;;12.34;77.29;102571.59;5073058;28;20112;-73
2022/05/08 01:33:44;;;;;;;13.38;8.70;;;;;;;12.37;77.10;102562.00;5072194;28;20376;-73
2022/05/08 01:36:10;;;;;;;14.00;8.80;;;;;;;12.33;76.99;102567.25;5073096;28;20040;-73
2022/05/08 01:38:35;;;;;;;15.55;9.00;;;;;;;12.28;77.16;102569.88;5071892;28;20025;-73
2022/05/08 01:41:04;;;;;;;15.57;9.90;;;;;;;12.26;76.94;102574.25;5072946;28;20025;-73
2022/05/08 01:43:37;;;;;;;14.00;8.60;;;;;;;12.22;77.50;102577.72;5072893;28;20042;-73
2022/05/08 01:46:06;;;;;;;13.38;8.90;;;;;;;12.21;77.44;102581.22;5072099;28;20056;-73
2022/05/08 01:48:32;;;;;;;16.25;9.65;;;;;;;12.18;76.93;102581.22;5072764;28;20360;-73
2022/05/08 01:50:59;;;;;;;15.77;9.52;;;;;;;12.16;77.68;102578.63;5072910;28;20434;-73
2022/05/08 01:53:27;;;;;;;15.05;8.57;;;;;;;12.12;77.44;102582.09;5071953;28;20048;-73
2022/05/08 01:55:54;;;;;;;17.60;10.10;;;;;;;12.09;77.48;102576.88;5072482;28;20031;-73
2022/05/08 01:58:24;;;;;;;14.65;9.18;;;;;;;12.06;77.17;102586.47;5072503;28;20048;-73
2022/05/08 02:00:50;;;;;;;16.33;9.27;;;;;;;12.02;77.32;102590.84;5072161;28;20028;-73
2022/05/08 02:03:17;;;;;;;12.63;9.40;;;;;;;11.92;77.88;102590.00;5072974;28;20065;-73
2022/05/08 02:05:43;;;;;;;15.32;9.38;;;;;;;11.91;77.47;102587.41;5072546;28;20024;-73
2022/05/08 02:08:09;;;;;;;17.40;9.32;;;;;;;11.86;77.96;102584.75;5071891;28;20380;-73
2022/05/08 02:10:35;;;;;;;14.88;9.02;;;;;;;11.88;78.04;102587.41;5072400;28;20028;-73
2022/05/08 02:13:00;;;;;;;14.05;9.00;;;;;;;11.83;77.73;102589.97;5072600;28;20025;-73
2022/05/08 02:15:29;;;;;;;15.57;9.32;;;;;;;11.81;78.24;102589.13;5072047;28;20418;-73
2022/05/08 02:17:57;;;;;;;14.93;8.93;;;;;;;11.79;77.96;102590.84;5072226;28;20494;-73
2022/05/08 02:20:23;;;;;;;12.98;9.43;;;;;;;11.76;78.31;102592.59;5072628;28;20027;-73
2022/05/08 02:22:48;;;;;;;17.10;9.90;;;;;;;11.75;78.21;102585.63;5074469;28;20024;-73
2022/05/08 02:25:13;;;;;;;16.05;9.95;;;;;;;11.72;78.63;102599.56;5076513;28;20385;-73
2022/05/08 02:27:41;;;;;;;14.65;9.38;;;;;;;11.63;78.59;102589.97;5075501;28;20107;-73
2022/05/08 02:30:09;;;;;;;16.63;10.23;;;;;;;11.57;78.88;102596.94;5076400;28;20376;-73
2022/05/08 02:32:34;;;;;;;18.65;10.55;;;;;;;11.54;79.58;102603.03;5076281;28;20025;-73
2022/05/08 02:35:00;;;;;;;15.55;10.32;;;;;;;11.52;79.53;102607.41;5075714;28;20071;-73
2022/05/08 02:37:26;;;;;;;14.48;10.30;;;;;;;11.52;79.49;102604.78;5076199;28;20460;-73
2022/05/08 02:39:52;;;;;;;18.35;10.73;;;;;;;11.51;80.27;102605.66;5075951;28;20040;-73
2022/05/08 02:42:17;;;;;;;16.42;9.90;;;;;;;11.43;79.55;102599.53;5075373;28;20172;-73
2022/05/08 02:44:42;;;;;;;18.65;10.65;;;;;;;11.44;79.84;102596.94;5075947;28;20021;-73
2022/05/08 02:47:08;;;;;;;16.17;10.48;;;;;;;11.45;79.78;102611.75;5076143;28;20028;-73
2022/05/08 02:49:33;;;;;;;19.63;10.18;;;;;;;11.40;79.77;102599.53;5075041;28;20025;-73
2022/05/08 02:51:58;;;;;;;14.82;9.90;;;;;;;11.35;80.11;102601.28;5076509;28;20021;-73
2022/05/08 02:54:23;;;;;;;19.65;10.43;;;;;;;11.36;80.29;102603.88;5076028;28;20028;-73
2022/05/08 02:59:32;;;;;;;18.52;10.48;;;;;;;11.47;79.82;102607.38;5075571;28;20086;-73
2022/05/08 03:01:57;;;;;;;16.02;10.82;;;;;;;11.45;79.73;102614.34;5076033;28;20029;-73
2022/05/08 03:04:23;;;;;;;18.65;10.43;;;;;;;11.39;80.22;102601.28;5075271;28;20024;-73
2022/05/08 03:06:48;;;;;;;17.73;10.38;;;;;;;11.43;79.74;102613.47;5075327;28;20060;-73
2022/05/08 03:09:13;;;;;;;16.63;10.23;;;;;;;11.51;79.81;102612.59;5075713;28;20032;-73
2022/05/08 03:11:38;;;;;;;17.40;10.52;;;;;;;11.51;79.41;102612.59;5074759;28;20024;-72
2022/05/08 03:14:05;;;;;;;17.05;10.57;;;;;;;11.42;78.47;102596.06;5075732;28;20033;-73
2022/05/08 03:16:30;;;;;;;16.60;10.23;;;;;;;11.36;78.47;102601.28;5075439;28;20551;-73
2022/05/08 03:18:55;;;;;;;23.42;11.23;;;;;;;11.34;78.64;102616.06;5074706;28;20111;-73
2022/05/08 03:21:22;;;;;;;21.80;10.20;;;;;;;11.29;78.88;102606.50;5075654;28;20030;-73
2022/05/08 03:23:47;;;;;;;19.33;10.32;;;;;;;11.18;79.11;102611.69;5074997;28;20423;-73
2022/05/08 03:26:14;;;;;;;19.08;10.77;;;;;;;11.17;79.40;102602.97;5074716;28;20032;-73
2022/05/08 03:28:40;;;;;;;17.35;10.75;;;;;;;11.21;79.18;102604.72;5075230;28;20029;-73
2022/05/08 03:31:06;;;;;;;17.65;10.93;;;;;;;11.10;78.71;102606.44;5074374;28;20388;-73
2022/05/08 03:33:33;;;;;;;19.67;10.82;;;;;;;11.11;79.13;102602.09;5074322;28;20025;-73
2022/05/08 03:35:58;;;;;;;23.45;9.48;;;;;;;11.08;78.71;102605.56;5075218;28;20560;-73
2022/05/08 03:38:25;;;;;;;18.52;10.55;;;;;;;11.06;78.57;102602.09;5074317;28;20115;-73
2022/05/08 03:40:51;;;;;;;23.20;10.15;;;;;;;11.06;79.00;102609.06;5074729;28;20059;-73
2022/05/08 03:43:16;;;;;;;19.50;9.85;;;;;;;11.09;79.11;102609.06;5075304;28;20025;-73
2022/05/08 03:45:41;;;;;;;17.05;9.48;;;;;;;11.07;78.14;102601.22;5074072;28;20024;-73
2022/05/08 03:48:07;;;;;;;17.13;9.27;;;;;;;11.11;78.37;102612.53;5074899;28;20039;-73
2022/05/08 03:50:32;;;;;;;18.02;8.15;;;;;;;11.05;76.18;102607.31;5074633;28;20412;-73
2022/05/08 03:52:59;;;;;;;19.15;8.20;;;;;;;10.89;76.46;102617.72;5074116;28;20165;-72
2022/05/08 03:55:25;;;;;;;15.93;8.02;;;;;;;10.86;76.49;102612.47;5074776;28;20027;-72
2022/05/08 03:57:51;;;;;;;18.77;7.90;;;;;;;10.82;75.59;102612.44;5074239;28;20049;-73
2022/05/08 04:00:17;;;;;;;14.98;7.78;;;;;;;10.83;76.01;102620.28;5074121;28;20039;-73
2022/05/08 04:02:43;;;;;;;16.55;7.63;;;;;;;10.74;74.48;102618.50;5074463;28;20380;-72
2022/05/08 04:05:09;;;;;;;14.90;6.47;;;;;;;10.80;74.84;102625.50;5074695;28;20021;-72
2022/05/08 04:07:34;;;;;;;16.98;6.60;;;;;;;10.70;74.14;102616.75;5073566;28;20032;-73
2022/05/08 04:10:00;;;;;;;15.23;7.55;;;;;;;10.71;73.93;102622.84;5074536;28;20490;-73
2022/05/08 04:12:26;;;;;;;17.15;7.03;;;;;;;10.74;73.98;102628.06;5074650;28;20119;-72
2022/05/08 04:14:52;;;;;;;15.15;6.75;;;;;;;10.73;74.15;102622.00;5073574;28;20027;-73
2022/05/08 04:17:18;;;;;;;15.38;6.35;;;;;;;10.75;73.59;102632.41;5074536;28;20055;-73
2022/05/08 04:19:43;;;;;;;23.02;6.82;;;;;;;10.76;72.92;102623.75;5074008;28;20032;-73
2022/05/08 04:24:53;;;;;;;19.77;6.00;;;;;;;10.77;72.25;102634.19;5074765;28;20439;-73
2022/05/08 04:27:19;;;;;;;18.30;6.50;;;;;;;10.69;72.14;102628.06;5073520;28;20029;-72
2022/05/08 04:29:44;;;;;;;18.17;5.72;;;;;;;10.64;71.85;102631.50;5073775;28;20036;-72
2022/05/08 04:32:10;;;;;;;20.88;6.68;;;;;;;10.60;72.44;102629.75;5074141;28;20042;-72
2022/05/08 04:34:35;;;;;;;18.83;6.05;;;;;;;10.60;72.92;102625.41;5072998;28;20024;-73
2022/05/08 04:37:00;;;;;;;16.63;6.07;;;;;;;10.59;73.02;102626.25;5073998;28;20548;-73
2022/05/08 04:39:25;;;;;;;17.25;6.05;;;;;;;10.64;72.69;102626.28;5074238;28;20025;-72
2022/05/08 04:41:51;;;;;;;18.75;5.90;;;;;;;10.54;72.40;102626.25;5072820;28;20029;-72
2022/05/08 04:44:17;;;;;;;17.88;5.55;;;;;;;10.60;72.44;102640.19;5073711;28;20048;-73
2022/05/08 04:46:42;;;;;;;23.95;6.10;;;;;;;10.59;73.11;102638.44;5072757;28;20075;-72
2022/05/08 04:49:08;;;;;;;19.15;5.63;;;;;;;10.57;72.91;102637.56;5072993;28;20036;-72
2022/05/08 04:51:33;;;;;;;19.88;5.97;;;;;;;10.53;72.78;102644.50;5073300;28;20021;-72
2022/05/08 04:53:58;;;;;;;22.33;5.85;;;;;;;10.50;72.63;102647.97;5073875;28;20040;-73
2022/05/08 04:56:24;;;;;;;19.73;5.97;;;;;;;10.45;72.84;102651.41;5073116;28;20129;-72
2022/05/08 04:58:49;;;;;;;26.70;6.85;;;;;;;10.51;72.88;102667.94;5073210;28;20044;-72
2022/05/08 05:01:15;;;;;;;21.00;5.60;;;;;;;10.47;72.88;102660.13;5073546;28;20040;-72
2022/05/08 05:03:41;;;;;;;18.38;5.57;;;;;;;10.48;72.58;102654.88;5072375;28;20090;-72
2022/05/08 05:06:07;;;;;;;18.20;5.07;;;;;;;10.46;73.32;102660.94;5073364;28;20020;-72
2022/05/08 05:08:32;;;;;;;20.73;5.90;;;;;;;10.48;72.77;102661.84;5073265;28;20372;-72
2022/05/08 05:10:57;;;;;;;17.45;5.75;;;;;;;10.43;73.17;102661.84;5072775;28;20074;-72
2022/05/08 05:13:23;;;;;;;19.90;5.53;;;;;;;10.49;73.40;102671.41;5073438;28;20097;-73
2022/05/08 05:15:48;;;;;;;19.38;6.25;;;;;;;10.48;73.21;102660.09;5073196;28;20041;-73
2022/05/08 05:18:13;;;;;;;19.52;5.65;;;;;;;10.52;73.02;102669.69;5072400;28;20029;-72
2022/05/08 05:20:38;;;;;;;17.75;5.50;;;;;;;10.46;73.21;102680.09;5072798;28;20059;-72
2022/05/08 05:23:04;;;;;;;19.30;6.20;;;;;;;10.45;73.71;102673.13;5073351;28;20047;-72
2022/05/08 05:25:29;;;;;;;15.63;5.97;;;;;;;10.47;73.43;102679.22;5072555;28;20464;-72
2022/05/08 05:27:56;;;;;;;25.20;6.43;;;;;;;10.51;73.87;102683.59;5072811;28;20028;-72
2022/05/08 05:30:21;;;;;;;22.73;5.30;;;;;;;10.53;73.55;102687.09;5073277;28;20036;-73
2022/05/08 05:32:47;;;;;;;17.13;5.60;;;;;;;10.55;73.00;102690.56;5072127;28;20439;-73
2022/05/08 05:35:12;;;;;;;27.45;6.53;;;;;;;10.54;72.89;102696.66;5073013;28;20028;-73
2022/05/08 05:37:39;;;;;;;19.23;6.25;;;;;;;10.62;72.97;102690.59;5071951;28;20086;-73
2022/05/08 05:40:05;;;;;;;20.85;6.53;;;;;;;10.68;72.80;102693.25;5073079;28;20032;-73
2022/05/08 05:42:31;;;;;;;22.60;6.32;;;;;;;10.71;72.38;102701.97;5072626;28;20428;-73
2022/05/08 05:44:56;;;;;;;18.75;5.60;;;;;;;10.78;71.72;102705.47;5072390;28;20112;-73
2022/05/08 05:50:06;;;;;;;;;;;;;;;10.92;71.56;102710.75;5073724;28;20541;-72
2022/05/08 05:52:34;;;;;;;20.92;5.65;;;;;;;10.91;71.65;102725.56;5071923;28;19913;-73
2022/05/08 05:54:59;;;;;;;21.05;5.88;;;;;;;10.92;71.86;102722.09;5072918;28;20093;-73
2022/05/08 05:57:24;;;;;;;21.50;5.35;;;;;;;10.94;71.61;102722.97;5072404;28;20068;-73
2022/05/08 05:59:50;;;;;;;21.13;5.65;;;;;;;10.99;70.80;102718.66;5071724;28;20033;-72
2022/05/08 06:02:15;;;;;;;21.80;5.50;;;;;;;11.04;70.60;102723.00;5072801;28;20395;-73
2022/05/08 06:04:41;;;;;;;21.40;5.68;;;;;;;11.10;69.60;102733.47;5072595;28;20116;-73
2022/05/08 06:07:06;;;;;;;21.45;5.35;;;;;;;11.04;69.79;102736.94;5071986;28;20020;-73
2022/05/08 06:09:31;;;;;;;19.75;5.25;;;;;;;11.08;69.26;102732.59;5072442;28;20029;-72
2022/05/08 06:11:57;;;;;;;20.15;5.28;;;;;;;11.12;69.52;102731.75;5073112;28;20021;-72
2022/05/08 06:14:22;;;;;;;19.73;5.15;;;;;;;11.20;69.31;102737.88;5071831;28;20446;-73
2022/05/08 06:16:47;;;;;;;24.63;5.45;;;;;;;11.27;69.08;102733.56;5072231;28;20035;-73
2022/05/08 06:19:13;;;;;;;18.48;5.18;;;;;;;11.36;68.43;102739.69;5072811;28;20406;-73
2022/05/08 06:21:38;;;;;;;20.15;5.85;;;;;;;11.42;67.90;102742.31;5071561;28;20021;-73
2022/05/08 06:24:03;;;;;;;17.08;5.07;;;;;;;11.48;67.54;102741.47;5072494;28;20028;-72
2022/05/08 06:26:29;;;;;;;18.58;5.68;;;;;;;11.51;67.04;102744.09;5072468;28;20030;-73
2022/05/08 06:28:55;;;;;;;22.27;5.20;;;;;;;11.53;66.92;102744.94;5071375;28;20119;-73
2022/05/08 06:31:21;;;;;;;19.38;4.82;;;;;;;11.55;66.84;102750.19;5072372;28;20036;-73
2022/05/08 06:33:46;;;;;;;24.77;5.20;;;;;;;11.65;66.81;102746.75;5072279;28;20365;-73
2022/05/08 06:36:12;;;;;;;19.52;4.90;;;;;;;11.79;65.72;102749.38;5071887;28;20012;-73
2022/05/08 06:38:38;;;;;;;20.10;5.30;;;;;;;11.82;65.54;102745.03;5072261;28;20078;-73
2022/05/08 06:41:03;;;;;;;16.73;4.72;;;;;;;11.91;65.67;102755.53;5071611;28;20460;-72
2022/05/08 06:43:28;;;;;;;16.92;4.90;;;;;;;12.00;64.85;102756.41;5072307;28;20048;-73
2022/05/08 06:45:54;;;;;;;26.00;6.00;;;;;;;11.89;64.34;102751.16;5072038;28;20020;-73
2022/05/08 06:48:19;;;;;;;17.10;4.80;;;;;;;11.94;64.82;102760.75;5071361;28;20032;-73
2022/05/08 06:50:44;;;;;;;17.33;4.72;;;;;;;11.98;65.30;102759.03;5072249;28;20029;-72
2022/05/08 06:53:11;;;;;;;23.42;5.22;;;;;;;12.03;65.17;102761.63;5072330;28;20104;-73
2022/05/08 06:55:36;;;;;;;20.48;4.95;;;;;;;11.93;64.16;102759.03;5071168;28;20431;-72
2022/05/08 06:58:03;;;;;;;17.83;4.55;;;;;;;11.85;64.23;102755.50;5071913;28;20044;-72
2022/05/08 07:03:12;;;;;;;16.85;4.57;;;;;;;11.66;64.94;102758.91;5071818;28;20094;-72
2022/05/08 07:05:43;;;;;;;19.33;4.57;;;;;;;11.51;65.02;102764.09;5071977;28;20029;-73
2022/05/08 07:08:09;;;;;;;16.75;4.80;;;;;;;11.37;65.86;102762.31;5072506;28;20052;-73
2022/05/08 07:10:34;;;;;;;18.00;4.50;;;;;;;11.27;65.91;102765.75;5074508;28;20067;-73
2022/05/08 07:12:59;;;;;;;14.63;4.72;;;;;;;11.21;67.14;102776.16;5075591;28;20024;-73
2022/05/08 07:15:25;;;;;;;19.42;4.88;;;;;;;11.16;66.64;102777.91;5075537;28;20029;-72
2022/05/08 07:17:50;;;;;;;19.60;4.75;;;;;;;10.97;66.21;102772.56;5074683;28;20510;-73
2022/05/08 07:20:15;;;;;;;19.52;4.63;;;;;;;10.87;66.43;102781.22;5075736;28;20029;-73
2022/05/08 07:22:40;;;;;;;24.45;6.07;;;;;;;10.84;67.75;102777.72;5075130;28;20058;-73
2022/05/08 07:25:06;;;;;;;16.30;4.60;;;;;;;10.73;66.72;102768.09;5074589;28;20021;-72
2022/05/08 07:27:36;;;;;;;18.15;5.00;;;;;;;10.84;68.00;102780.31;5074900;28;20105;-72
2022/05/08 07:30:03;;;;;;;18.35;4.68;;;;;;;10.90;68.39;102778.63;5075509;28;20016;-73
2022/05/08 07:32:28;;;;;;;21.08;4.82;;;;;;;10.89;67.63;102782.09;5075180;28;20024;-72
2022/05/08 07:37:37;;;;;;;22.20;5.00;;;;;;;11.19;68.70;102785.75;5074465;28;20499;-72
2022/05/08 07:40:03;;;;;;;18.02;4.97;;;;;;;11.32;65.93;102771.88;5075123;28;20105;-72
2022/05/08 07:42:28;;;;;;;21.15;4.93;;;;;;;11.52;65.84;102782.41;5075327;28;20051;-72
2022/05/08 07:44:53;;;;;;;18.85;4.80;;;;;;;11.68;66.86;102781.56;5073988;28;20028;-73
2022/05/08 07:47:19;;;;;;;17.13;5.25;;;;;;;11.86;65.37;102780.78;5075084;28;20040;-73
2022/05/08 07:49:44;;;;;;;18.90;5.45;;;;;;;12.04;64.20;102781.69;5074589;28;20438;-72
2022/05/08 07:52:09;;;;;;;19.58;4.82;;;;;;;12.11;64.78;102786.91;5074076;28;20036;-73
2022/05/08 07:54:35;;;;;;;16.88;4.43;;;;;;;12.23;64.41;102787.78;5074603;28;20427;-73
2022/05/08 07:57:00;;;;;;;17.45;4.90;;;;;;;12.32;63.44;102793.91;5074874;28;20079;-73
2022/05/08 07:59:25;;;;;;;17.40;4.60;;;;;;;12.35;63.31;102787.81;5074244;28;20099;-72
2022/05/08 08:01:50;;;;;;;22.60;5.30;;;;;;;12.43;63.43;102790.44;5074435;28;20033;-72
2022/05/08 08:04:16;;;;;;;18.90;5.13;;;;;;;12.47;62.34;102794.78;5074870;28;20028;-72
2022/05/08 08:06:41;;;;;;;15.80;5.07;;;;;;;12.60;63.43;102799.13;5073600;28;20020;-72
2022/05/08 08:09:06;;;;;;;16.33;4.90;;;;;;;12.67;62.66;102806.09;5074529;28;20033;-73
2022/05/08 08:11:32;;;;;;;18.48;5.18;;;;;;;12.68;63.15;102800.00;5074302;28;20024;-73
2022/05/08 08:13:57;;;;;;;21.15;5.35;;;;;;;12.75;61.66;102804.38;5073593;28;20020;-73
2022/05/08 08:16:23;;;;;;;17.75;5.20;;;;;;;12.81;61.19;102798.22;5074570;28;20033;-73
2022/05/08 08:18:49;;;;;;;18.02;5.10;;;;;;;12.86;60.16;102780.78;5074112;28;20024;-73
2022/05/08 08:21:16;;;;;;;23.40;6.25;;;;;;;12.93;59.29;102786.88;5073449;28;20074;-73
2022/05/08 08:23:43;;;;;;;13.27;4.32;;;;;;;12.90;58.20;102792.97;5074011;28;20048;-73
2022/05/08 08:26:10;;;;;;;20.88;5.57;;;;;;;12.80;58.94;102773.81;5074294;28;20111;-73
2022/05/08 08:28:36;;;;;;;23.80;6.35;;;;;;;12.95;59.45;102795.59;5073193;28;20090;-73
2022/05/08 08:31:01;;;;;;;13.48;4.07;;;;;;;13.08;58.69;102798.19;5074192;28;20028;-73
2022/05/08 08:33:26;;;;;;;18.23;4.75;;;;;;;13.20;57.44;102796.41;5073383;28;20024;-73
2022/05/08 08:35:52;;;;;;;17.13;4.78;;;;;;;13.30;57.91;102798.13;5073716;28;20024;-73
2022/05/08 08:38:17;;;;;;;14.82;5.22;;;;;;;13.37;57.83;102804.22;5073968;28;20036;-73
2022/05/08 08:40:48;;;;;;;22.58;5.65;;;;;;;13.47;57.73;102800.69;5072849;28;20029;-73
2022/05/08 08:43:16;;;;;;;15.85;4.90;;;;;;;13.56;58.22;102803.28;5074156;28;20025;-73
2022/05/08 08:48:27;;;;;;;17.67;4.80;;;;;;;13.70;57.01;102798.84;5073120;28;20039;-72
2022/05/08 08:50:54;;;;;;;21.77;5.78;;;;;;;13.73;56.97;102788.34;5073536;28;20028;-73
2022/05/08 08:53:20;;;;;;;21.15;5.20;;;;;;;13.88;57.65;102799.63;5073806;28;20024;-73
2022/05/08 08:55:49;;;;;;;14.43;5.18;;;;;;;14.00;56.85;102789.06;5072874;28;20017;-73
2022/05/08 08:58:15;;;;;;;15.07;4.45;;;;;;;14.17;54.01;102788.94;5073579;28;20055;-73
2022/05/08 09:00:41;;;;;;;14.50;4.40;;;;;;;14.25;53.95;102792.34;5073378;28;20036;-73
2022/05/08 09:03:06;;;;;;;14.23;5.60;;;;;;;14.29;55.59;102800.19;5072786;28;20066;-73
2022/05/08 09:05:34;;;;;;;21.63;5.38;;;;;;;14.37;55.69;102792.25;5073109;28;20025;-73
2022/05/08 09:08:00;;;;;;;18.80;4.88;;;;;;;14.53;56.34;102793.03;5073527;28;20362;-73
2022/05/08 09:10:28;;;;;;;14.20;4.35;;;;;;;14.74;55.63;102795.44;5072833;28;20021;-73
2022/05/08 09:12:54;;;;;;;11.77;4.95;;;;;;;14.84;53.79;102803.22;5073217;28;20016;-73
2022/05/08 09:15:26;;;;;;;17.63;4.43;;;;;;;14.90;52.82;102798.78;5073203;28;20044;-72
2022/05/08 09:17:59;;;;;;;11.88;4.50;;;;;;;14.91;52.03;102803.19;5072266;28;20067;-73
2022/05/08 09:20:31;;;;;;;15.57;4.32;;;;;;;14.89;51.50;102797.06;5073208;28;20099;-73
2022/05/08 09:23:00;;;;;;;13.93;4.53;;;;;;;14.95;50.53;102796.13;5072541;28;20079;-73
2022/05/08 09:25:57;;;;;;;15.02;4.82;;;;;;;15.08;50.40;102792.47;5073261;28;20032;-73
2022/05/08 09:28:30;;;;;;;13.38;4.30;;;;;;;15.05;50.39;102786.41;5073168;28;20057;-73
2022/05/08 09:31:06;;;;;;;15.50;3.83;;;;;;;15.21;50.96;102793.22;5071792;28;20111;-73
2022/05/08 09:33:35;;;;;;;15.20;4.78;;;;;;;15.29;48.95;102778.22;5072883;28;20039;-73
2022/05/08 09:36:04;;;;;;;14.63;4.55;;;;;;;15.41;50.48;102782.47;5073207;28;20357;-73
2022/05/08 09:38:48;;;;;;;22.75;4.95;;;;;;;15.55;50.20;102787.53;5072661;28;20028;-73
2022/05/08 09:41:17;;;;;;;14.00;4.05;;;;;;;15.74;48.40;102778.53;5073271;28;20028;-73
2022/05/08 09:43:42;;;;;;;13.73;4.25;;;;;;;15.86;47.88;102780.13;5072451;28;20031;-73
2022/05/08 09:46:09;;;;;;;14.32;4.28;;;;;;;15.88;45.89;102781.81;5072781;28;20028;-72
2022/05/08 09:48:34;;;;;;;13.23;4.53;;;;;;;15.86;44.37;102782.75;5072547;28;20032;-73
2022/05/08 09:51:03;;;;;;;12.70;3.67;;;;;;;15.90;46.29;102790.56;5072068;28;20376;-73
2022/05/08 09:53:29;;;;;;;13.82;3.45;;;;;;;15.93;47.47;102776.50;5072721;28;20028;-73
2022/05/08 09:55:56;;;;;;;9.93;3.20;;;;;;;16.13;45.57;102786.72;5072694;28;20021;-73
2022/05/08 09:58:22;;;;;;;11.32;3.85;;;;;;;16.21;44.68;102786.59;5071830;28;20064;-73
2022/05/08 10:00:48;;;;;;;11.68;3.47;;;;;;;16.31;44.52;102791.66;5072538;28;20027;-73
2022/05/08 10:03:20;;;;;;;15.35;4.20;;;;;;;16.43;45.68;102779.22;5072812;28;20131;-73
2022/05/08 10:05:47;;;;;;;16.33;4.57;;;;;;;16.42;47.09;102780.97;5071669;28;20024;-73
2022/05/08 10:08:14;;;;;;;17.73;4.00;;;;;;;16.58;47.02;102774.56;5072442;28;20053;-73
2022/05/08 10:16:51;;;;;;;16.30;4.65;;;;;;;16.91;47.42;102759.03;5073078;28;20127;-73
2022/05/08 10:19:16;;;;;;;13.73;4.45;;;;;;;16.94;44.93;102760.72;5071925;28;20031;-73
2022/05/08 10:21:57;;;;;;;11.20;3.67;;;;;;;17.00;46.71;102764.16;5072458;28;20440;-73
2022/05/08 10:24:40;;;;;;;13.68;4.60;;;;;;;16.87;44.72;102756.47;5072524;28;20507;-73
2022/05/08 10:27:23;;;;;;;12.55;4.22;;;;;;;16.89;46.09;102762.59;5071806;28;20035;-73
2022/05/08 10:29:48;;;;;;;14.07;4.00;;;;;;;17.04;45.45;102757.03;5072425;28;20029;-73
2022/05/08 10:32:33;;;;;;;15.03;4.10;;;;;;;17.32;46.66;102765.22;5072577;28;20024;-73
2022/05/08 10:35:11;;;;;;;13.60;4.50;;;;;;;17.27;44.86;102749.53;5071768;28;20457;-73
2022/05/08 10:37:38;;;;;;;15.95;4.28;;;;;;;17.15;44.13;102751.53;5072004;28;20392;-73
2022/05/08 10:40:24;;;;;;;9.68;3.58;;;;;;;17.35;45.19;102753.75;5071613;28;20031;-73
2022/05/08 10:42:56;;;;;;;13.43;3.90;;;;;;;17.39;43.55;102750.16;5073148;28;20032;-73
2022/05/08 10:45:30;;;;;;;15.85;3.63;;;;;;;17.60;44.73;102735.63;5076183;28;20028;-73
2022/05/08 10:48:05;;;;;;;12.57;3.78;;;;;;;17.65;44.22;102739.00;5075461;28;20024;-73
2022/05/08 10:50:30;;;;;;;15.32;4.35;;;;;;;17.77;43.40;102741.41;5076099;28;20039;-73
2022/05/08 10:52:58;;;;;;;11.45;4.03;;;;;;;18.00;43.97;102739.09;5076179;28;20388;-73
2022/05/08 10:55:24;;;;;;;11.45;4.18;;;;;;;18.25;42.82;102735.84;5075178;28;20044;-74
2022/05/08 10:57:51;;;;;;;7.78;3.40;;;;;;;18.23;40.01;102732.38;5075539;28;20072;-73
2022/05/08 11:00:25;;;;;;;12.88;3.40;;;;;;;18.33;42.40;102735.63;5075809;28;20032;-73
2022/05/08 11:02:55;;;;;;;11.55;3.75;;;;;;;18.47;41.06;102739.66;5074975;28;20117;-73
2022/05/08 11:05:23;;;;;;;13.07;4.18;;;;;;;18.56;40.14;102733.25;5076051;28;20066;-74
2022/05/08 11:07:59;;;;;;;16.63;4.20;;;;;;;18.66;42.10;102733.88;5075406;28;20123;-73
2022/05/08 11:10:33;;;;;;;13.07;3.75;;;;;;;18.87;41.40;102729.81;5074917;28;20052;-73
2022/05/08 11:13:12;;;;;;;11.00;3.95;;;;;;;18.96;40.42;102737.44;5075975;28;20028;-73
2022/05/08 11:15:45;;;;;;;10.38;3.15;;;;;;;18.94;39.74;102732.22;5074725;28;20020;-74
2022/05/08 11:18:15;;;;;;;15.98;3.45;;;;;;;19.08;39.83;102733.59;5075895;28;20028;-73
2022/05/08 11:20:46;;;;;;;12.07;3.85;;;;;;;19.21;39.68;102731.47;5075558;28;20040;-74
2022/05/08 11:23:12;;;;;;;10.88;3.45;;;;;;;19.42;39.56;102738.72;5074786;28;20400;-74
2022/05/08 11:25:38;;;;;;;8.60;3.50;;;;;;;19.36;38.66;102734.53;5075139;28;20472;-73
2022/05/08 11:28:04;;;;;;;8.35;3.58;;;;;;;19.40;39.34;102730.88;5075464;28;20029;-73
2022/05/08 11:30:35;;;;;;;9.02;3.78;;;;;;;19.41;38.71;102719.34;5074675;28;20036;-74
2022/05/08 11:36:06;;;;;;;10.93;3.30;;;;;;;20.08;39.50;102728.75;5075340;28;20031;-74
2022/05/08 11:38:52;;;;;;;9.40;3.60;;;;;;;20.09;37.47;102720.72;5074369;28;20039;-74
2022/05/08 11:41:18;;;;;;;10.60;3.50;;;;;;;20.60;38.26;102719.03;5061038;28;20051;-74